Henderson, Nevada Weather observations

Data are for observation ending at time listed.
 Day   Time    Ave.   Ave.  Ave.  Vector   Max.   Stn.    Total    Solar   Ave.  
  of    of     Air    Rel.  Wind   Wind    Wind   Baro.  Precip.   Rad.    Soil  
Year   Day     Temp.  Hum.  Speed  Dir.    Gust   Pres.                    Temp. 
2014   (PST)    F      %     mph   deg.    mph     mb.     in.     W/m2     F   
------------------------------------------------------------------------------
 239    0:50   75.2    36    1.7   285      2.8   938.4    0.00       0    70.9
 239    1:00   74.4    37    1.0   274      3.2   938.5    0.00       0    70.6
 239    1:10   73.8    38    0.5   221      1.8   938.6    0.00       0    70.1
 239    1:20   73.3    39    1.1   194      2.0   938.7    0.00       0    69.6
 239    1:30   73.7    38    1.2   185      1.8   938.7    0.00       0    69.4
 239    1:40   73.9    37    1.1   183      2.1   938.7    0.00       0    69.2
 239    1:50   73.1    39    1.3   209      2.2   938.7    0.00       0    68.9
 239    2:00   73.0    39    1.6   252      2.7   938.7    0.00       0    68.5
 239    2:10   73.6    38    1.8   307      3.9   938.7    0.00       0    68.6
 239    2:20   74.1    37    1.1   268      2.2   938.8    0.00       0    68.7
 239    2:30   73.6    38    0.3   243      1.9   938.9    0.00       0    68.6
 239    2:40   73.2    39    0.5   320      2.1   938.8    0.00       0    68.5
 239    2:50   73.7    38    0.5   340      2.8   938.9    0.00       0    68.4
 239    3:00   73.1    39    0.1   217      0.9   939.0    0.00       0    68.2
 239    3:10   72.1    41    1.0   195      2.2   939.1    0.00       0    67.8
 239    3:20   71.6    42    1.3   191      2.5   939.1    0.00       0    67.6
 239    3:30   71.3    42    0.8   192      2.1   939.1    0.00       0    67.2
 239    3:40   70.9    44    1.6   203      2.3   939.2    0.00       0    67.0
 239    3:50   71.1    43    1.7   249      2.9   939.2    0.00       0    66.8
 239    4:00   71.7    42    2.0   283      3.0   939.2    0.00       0    66.9
 239    4:10   72.0    41    2.3   269      3.2   939.3    0.00       0    67.1
 239    4:20   71.9    42    1.4   277      2.3   939.4    0.00       0    67.2
 239    4:30   71.3    42    0.9   236      2.0   939.6    0.00       0    67.0
 239    4:40   71.0    42    1.1   189      2.1   939.7    0.00       0    66.7
 239    4:50   71.1    42    0.7   241      2.2   939.9    0.00       0    66.6
 239    5:00   70.8    44    1.0   263      1.9   940.0    0.00       0    66.5
 239    5:10   70.7    42    0.3   231      0.9   940.2    0.00       4    66.3
 239    5:20   70.7    44    1.0   214      1.9   940.3    0.00       7    66.2
 239    5:30   70.4    44    1.7   246      2.4   940.4    0.00      16    66.0
 239    5:40   70.8    44    1.2   232      2.2   940.5    0.00      21    66.1
 239    5:50   71.2    43    1.1   200      1.5   940.6    0.00      30    66.3
 239    6:00   72.1    42    1.0   233      2.0   940.7    0.00      42    66.7
 239    6:10   72.9    42    1.3   292      2.2   940.8    0.00      77    67.1
 239    6:20   73.9    41    1.7   296      4.2   940.9    0.00     177    67.7
 239    6:30   75.0    39    2.1   293      4.1   940.9    0.00     216    68.8
 239    6:40   76.5    37    1.9   294      3.9   940.9    0.00     254    71.3
 239    6:50   77.2    35    2.9   300      5.6   941.1    0.00     291    75.1
 239    7:00   77.6    34    3.4   306      6.1   941.2    0.00     328    78.2
 239    7:10   77.8    34    3.5   308      5.7   941.4    0.00     367    80.6
 239    7:20   78.3    33    3.4   315      7.2   941.5    0.00     405    82.5
 239    7:30   78.7    32    3.6   324      6.6   941.6    0.00     443    83.9
 239    7:40   79.0    32    4.2   308      7.3   941.6    0.00     480    85.2
 239    7:50   79.8    32    3.3   313      7.6   941.6    0.00     515    86.4
 239    8:00   80.2    31    2.7   325      5.1   941.7    0.00     553    87.4
 239    8:10   80.8    31    2.6   321      5.8   941.8    0.00     589    88.5
 239    8:20   81.7    30    2.6   360      5.7   941.9    0.00     623    89.6
 239    8:30   81.8    30    3.0   327      5.6   941.9    0.00     657    90.5
 239    8:40   82.1    30    3.2   330      6.4   942.0    0.00     689    91.3
 239    8:50   83.1    29    1.9   358      5.7   942.0    0.00     722    92.3
 239    9:00   83.9    28    2.3   355      5.6   942.0    0.00     752    93.4
 239    9:10   84.7    28    2.5   346      8.0   942.0    0.00     782    94.2
 239    9:20   84.3    28    2.2   323      6.6   942.0    0.00     810    94.8
 239    9:30   85.5    27    1.8   357      5.8   942.1    0.00     837    95.6
 239    9:40   86.2    27    2.2   340      5.9   942.1    0.00     860    96.4
 239    9:50   86.2    27    1.8   333      4.2   942.0    0.00     884    96.8
 239   10:00   86.2    27    3.3   316      6.4   942.0    0.00     907    97.4
 239   10:10   87.0    27    2.1   289      6.8   941.9    0.00     924    97.6
 239   10:20   86.8    27    2.7   304      6.1   941.8    0.00     941    97.9
 239   10:30   87.4    27    3.2   301      7.6   941.8    0.00     957    98.2
 239   10:40   86.7    28    2.8   281      7.2   941.7    0.00     971    98.4
 239   10:50   87.9    26    1.8   324      4.1   941.5    0.00     983    98.8
 239   11:00   89.4    25    2.1    80      5.7   941.4    0.00     995    99.4
 239   11:10   89.7    24    2.0   341      5.4   941.3    0.00    1003    99.7
 239   11:20   88.9    25    2.7   314      6.9   941.3    0.00    1011    99.8
 239   11:30   90.1    23    2.4   339      7.5   941.2    0.00    1019    100.1
 239   11:40   89.6    22    2.3   354      6.3   941.1    0.00    1024    100.2
 239   11:50   89.9    22    2.5    10      4.8   941.0    0.00    1024    100.3
 239   12:00   90.6    21    2.9   275      5.0   940.9    0.00    1023    100.6
 239   12:10   91.3    19    2.5   302      4.3   940.8    0.00    1019    100.8
 239   12:20   92.1    19    2.1   310      5.5   940.7    0.00    1011    101.3
 239   12:30   93.0    19    2.0    21      5.6   940.7    0.00    1007    101.7
 239   12:40   93.3    18    1.7     4      5.9   940.5    0.00     997    102.0
 239   12:50   94.0    18    1.6    56      4.4   940.4    0.00     986    102.3
 239   13:00   94.4    17    2.4   339      4.8   940.3    0.00     977    102.7
 239   13:10   93.7    18    1.8   285      5.3   940.2    0.00     965    102.8
 239   13:20   94.0    18    3.3   278      7.2   940.1    0.00     949    102.8
 239   13:30   94.1    17    3.0   316     10.3   939.9    0.00     934    102.5
 239   13:40   94.2    17    2.5   334      7.2   939.7    0.00     916    102.2
 239   13:50   94.8    17    1.4   360      5.3   939.6    0.00     894    102.3
 239   14:00   94.9    17    3.8   300      7.1   939.5    0.00     870    102.4
 239   14:10   96.0    16    1.6    36      4.9   939.3    0.00     847    102.4
 239   14:20   96.1    16    3.4   318      8.3   939.2    0.00     821    102.7
 239   14:30   96.0    15    3.4   324      8.2   939.0    0.00     791    102.7
 239   14:40   96.2    14    3.2   301      8.4   938.9    0.00     759    102.6
 239   14:50   96.2    14    3.3   316      8.5   938.9    0.00     728    102.5
 239   15:00   96.1    14    3.6   300      6.0   938.8    0.00     694    102.4
 239   15:10   96.1    14    3.6   307      7.3   938.8    0.00     662    102.3
 239   15:20   95.4    14    3.0   281      6.7   938.7    0.00     628    102.2
 239   15:30   96.7    14    1.8   298      5.3   938.6    0.00     593    102.1
 239   15:40   97.0    13    2.0   305      4.5   938.5    0.00     560    102.4
 239   15:50   97.8    12    1.4    14      3.7   938.4    0.00     523    102.6
 239   16:00   98.1    12    1.5    34      4.4   938.4    0.00     486    102.8
 239   16:10   97.3    12    1.9    58      5.8   938.4    0.00     447    102.7
 239   16:20   97.2    12    1.5   337      5.8   938.3    0.00     409    102.5
 239   16:30   97.7    12    1.3   346      5.3   938.3    0.00     371    102.3
 239   16:40   97.8    11    1.7     1      5.4   938.2    0.00     333    102.0
 239   16:50   97.6    11    1.6   333      5.0   938.2    0.00     294    101.5
 239   17:00   98.2    11    0.5    81      2.5   938.1    0.00     255    100.9
 239   17:10   97.5    11    1.2   349      3.9   938.1    0.00     217    100.4
 239   17:20   97.0    11    1.7   313      4.1   938.1    0.00     179    99.7
 239   17:30   96.1    12    2.2   329      4.4   938.0    0.00     144    98.8
 239   17:40   95.4    13    2.7   338      7.2   938.0    0.00     106    97.7
 239   17:50   94.5    14    1.8    19      6.6   938.0    0.00      67    96.4
 239   18:00   93.8    14    2.0    44      4.8   938.0    0.00      31    94.9
 239   18:10   92.2    14    1.0    53      3.8   938.1    0.00      10    93.1
 239   18:20   91.3    15    1.4    72      3.4   938.1    0.00       7    91.2
 239   18:30   91.4    15    2.1    88      4.1   938.2    0.00       3    89.8
 239   18:40   91.2    15    1.5    93      3.5   938.2    0.00       0    88.8
 239   18:50   89.7    16    0.9    92      2.3   938.3    0.00       0    87.5
 239   19:00   88.7    16    1.6    94      2.9   938.4    0.00       0    86.2
 239   19:10   89.0    15    0.9   107      3.1   938.5    0.00       0    85.2
 239   19:20   87.7    15    1.4   155      2.5   938.5    0.00       0    84.2
 239   19:30   86.6    17    1.1   176      2.1   938.6    0.00       0    83.2
 239   19:40   85.7    19    1.8   188      3.2   938.6    0.00       0    82.3
 239   19:50   84.9    20    1.7   183      3.5   938.7    0.00       0    81.4
 239   20:00   85.6    19    2.4   174      5.9   938.7    0.00       0    80.8
 239   20:10   86.3    18    3.1   180      6.2   938.8    0.00       0    80.9
 239   20:20   85.8    18    2.3   187      4.2   938.9    0.00       0    80.7
 239   20:30   85.3    17    2.2   179      4.2   938.9    0.00       0    80.3
 239   20:40   85.5    17    2.5   190      5.2   938.9    0.00       0    80.0
 239   20:50   85.4    16    2.6   194      4.8   939.0    0.00       0    79.8
 239   21:00   85.8    16    3.4   192      5.1   938.9    0.00       0    79.9
 239   21:10   85.7    16    3.5   188      5.8   938.9    0.00       0    80.2
 239   21:20   84.9    18    3.7   194      5.6   938.9    0.00       0    80.2
 239   21:30   84.2    18    2.3   210      4.2   938.8    0.00       0    79.9
 239   21:40   83.8    18    2.6   201      3.9   938.8    0.00       0    79.6
 239   21:50   83.8    18    1.4   216      2.6   938.8    0.00       0    79.4
 239   22:00   83.4    18    1.9   214      4.2   938.8    0.00       0    79.0
 239   22:10   84.2    17    3.0   198      4.7   938.8    0.00       0    79.0
 239   22:20   84.2    17    2.5   171      3.9   938.9    0.00       0    79.2
 239   22:30   83.6    18    2.0   177      3.8   939.0    0.00       0    79.1
 239   22:40   82.5    19    1.4   119      3.1   938.9    0.00       0    78.7
 239   22:50   82.6    19    1.7   158      4.2   938.9    0.00       0    78.3
 239   23:00   81.4    22    1.1   239      4.7   939.0    0.00       0    77.8
 239   23:10   79.8    23    0.2   245      1.5   938.9    0.00       0    77.0
 239   23:20   79.2    24    0.5    67      2.2   938.9    0.00       0    76.2
 239   23:30   78.9    25    0.8   222      1.9   938.9    0.00       0    75.5
 239   23:40   78.2    26    0.3   283      1.9   939.0    0.00       0    74.8
 239   23:50   78.8    22    0.6   128      1.9   939.0    0.00       0    74.4
 240    0:00   78.3    24    1.2   196      2.4   939.0    0.00       0    73.9
 240    0:10   77.9    24    0.9   149      2.3   938.9    0.00       0    73.5
 240    0:20   77.8    24    1.0   183      2.6   939.0    0.00       0    73.1
 240    0:30   77.8    26    0.6   166      2.6   939.0    0.00       0    72.8
 240    0:40   77.9    26    1.2   165      3.4   939.0    0.00       0    72.6

Return to Henderson, Nevada graphs page.


Western Regional Climate Center,wrcc@dri.edu